sensor_id;sensor_type;location;lat;lon;timestamp;P1;durP1;ratioP1;P2;durP2;ratioP2
9138;SDS011;4604;48.616;9.548;2024-03-25T00:01:31;3.53;;;2.07;;
9138;SDS011;4604;48.616;9.548;2024-03-25T00:03:59;2.30;;;1.93;;
9138;SDS011;4604;48.616;9.548;2024-03-25T00:06:25;6.60;;;2.27;;
9138;SDS011;4604;48.616;9.548;2024-03-25T00:08:52;3.77;;;2.30;;
9138;SDS011;4604;48.616;9.548;2024-03-25T00:11:17;4.03;;;2.27;;
9138;SDS011;4604;48.616;9.548;2024-03-25T00:13:44;4.37;;;2.30;;
9138;SDS011;4604;48.616;9.548;2024-03-25T00:16:10;2.20;;;1.90;;
9138;SDS011;4604;48.616;9.548;2024-03-25T00:18:36;4.50;;;2.27;;
9138;SDS011;4604;48.616;9.548;2024-03-25T00:21:04;3.10;;;2.47;;
9138;SDS011;4604;48.616;9.548;2024-03-25T00:23:31;9.40;;;2.30;;
9138;SDS011;4604;48.616;9.548;2024-03-25T00:25:56;7.07;;;2.40;;
9138;SDS011;4604;48.616;9.548;2024-03-25T00:28:23;4.00;;;2.33;;
9138;SDS011;4604;48.616;9.548;2024-03-25T00:30:49;6.80;;;2.20;;
9138;SDS011;4604;48.616;9.548;2024-03-25T00:33:15;4.90;;;2.50;;
9138;SDS011;4604;48.616;9.548;2024-03-25T00:35:42;3.20;;;2.10;;
9138;SDS011;4604;48.616;9.548;2024-03-25T00:38:10;5.13;;;2.07;;
9138;SDS011;4604;48.616;9.548;2024-03-25T00:40:35;5.53;;;2.23;;
9138;SDS011;4604;48.616;9.548;2024-03-25T00:43:02;6.20;;;2.63;;
9138;SDS011;4604;48.616;9.548;2024-03-25T00:45:28;4.20;;;2.57;;
9138;SDS011;4604;48.616;9.548;2024-03-25T00:47:56;4.97;;;2.60;;
9138;SDS011;4604;48.616;9.548;2024-03-25T00:50:22;5.50;;;2.67;;
9138;SDS011;4604;48.616;9.548;2024-03-25T00:52:48;3.30;;;2.23;;
9138;SDS011;4604;48.616;9.548;2024-03-25T00:55:15;4.47;;;2.47;;
9138;SDS011;4604;48.616;9.548;2024-03-25T00:57:42;4.43;;;2.30;;
9138;SDS011;4604;48.616;9.548;2024-03-25T01:00:09;5.97;;;2.60;;
9138;SDS011;4604;48.616;9.548;2024-03-25T01:02:36;5.20;;;2.23;;
9138;SDS011;4604;48.616;9.548;2024-03-25T01:05:02;5.03;;;2.57;;
9138;SDS011;4604;48.616;9.548;2024-03-25T01:07:30;3.60;;;2.33;;
9138;SDS011;4604;48.616;9.548;2024-03-25T01:09:56;5.37;;;2.47;;
9138;SDS011;4604;48.616;9.548;2024-03-25T01:12:25;5.07;;;2.30;;
9138;SDS011;4604;48.616;9.548;2024-03-25T01:14:50;6.07;;;2.70;;
9138;SDS011;4604;48.616;9.548;2024-03-25T01:17:17;3.93;;;2.37;;
9138;SDS011;4604;48.616;9.548;2024-03-25T01:19:43;9.60;;;2.60;;
9138;SDS011;4604;48.616;9.548;2024-03-25T01:22:10;4.23;;;2.50;;
9138;SDS011;4604;48.616;9.548;2024-03-25T01:24:36;3.90;;;2.27;;
9138;SDS011;4604;48.616;9.548;2024-03-25T01:27:03;6.20;;;2.53;;
9138;SDS011;4604;48.616;9.548;2024-03-25T01:29:30;5.87;;;2.70;;
9138;SDS011;4604;48.616;9.548;2024-03-25T01:31:57;3.37;;;2.53;;
9138;SDS011;4604;48.616;9.548;2024-03-25T01:34:24;6.13;;;2.73;;
9138;SDS011;4604;48.616;9.548;2024-03-25T01:36:51;3.87;;;2.27;;
9138;SDS011;4604;48.616;9.548;2024-03-25T01:39:17;4.97;;;2.80;;
9138;SDS011;4604;48.616;9.548;2024-03-25T01:41:44;14.00;;;2.57;;
9138;SDS011;4604;48.616;9.548;2024-03-25T01:44:10;7.17;;;3.10;;
9138;SDS011;4604;48.616;9.548;2024-03-25T01:46:38;3.40;;;2.40;;
9138;SDS011;4604;48.616;9.548;2024-03-25T01:49:05;4.13;;;2.30;;
9138;SDS011;4604;48.616;9.548;2024-03-25T01:51:32;6.70;;;3.03;;
9138;SDS011;4604;48.616;9.548;2024-03-25T01:53:59;4.87;;;2.97;;
9138;SDS011;4604;48.616;9.548;2024-03-25T01:56:26;4.37;;;2.70;;
9138;SDS011;4604;48.616;9.548;2024-03-25T01:58:56;5.03;;;2.90;;
9138;SDS011;4604;48.616;9.548;2024-03-25T02:01:23;4.53;;;2.57;;
9138;SDS011;4604;48.616;9.548;2024-03-25T02:03:50;5.63;;;2.60;;
9138;SDS011;4604;48.616;9.548;2024-03-25T02:06:17;5.27;;;2.37;;
9138;SDS011;4604;48.616;9.548;2024-03-25T02:08:44;6.60;;;2.80;;
9138;SDS011;4604;48.616;9.548;2024-03-25T02:11:10;6.83;;;2.50;;
9138;SDS011;4604;48.616;9.548;2024-03-25T02:13:37;4.50;;;2.70;;
9138;SDS011;4604;48.616;9.548;2024-03-25T02:16:05;3.87;;;2.47;;
9138;SDS011;4604;48.616;9.548;2024-03-25T02:18:31;2.73;;;2.03;;
9138;SDS011;4604;48.616;9.548;2024-03-25T02:21:00;5.57;;;2.60;;
9138;SDS011;4604;48.616;9.548;2024-03-25T02:23:26;5.70;;;2.80;;
9138;SDS011;4604;48.616;9.548;2024-03-25T02:25:54;7.10;;;3.10;;
9138;SDS011;4604;48.616;9.548;2024-03-25T02:28:20;3.23;;;2.63;;
9138;SDS011;4604;48.616;9.548;2024-03-25T02:30:47;5.37;;;3.00;;
9138;SDS011;4604;48.616;9.548;2024-03-25T02:33:13;5.37;;;2.43;;
9138;SDS011;4604;48.616;9.548;2024-03-25T02:35:40;4.63;;;2.70;;
9138;SDS011;4604;48.616;9.548;2024-03-25T02:38:07;5.57;;;2.67;;
9138;SDS011;4604;48.616;9.548;2024-03-25T02:40:34;5.10;;;2.73;;
9138;SDS011;4604;48.616;9.548;2024-03-25T02:43:02;5.00;;;2.83;;
9138;SDS011;4604;48.616;9.548;2024-03-25T02:45:32;5.20;;;3.23;;
9138;SDS011;4604;48.616;9.548;2024-03-25T02:47:58;6.87;;;3.30;;
9138;SDS011;4604;48.616;9.548;2024-03-25T02:50:24;5.77;;;2.80;;
9138;SDS011;4604;48.616;9.548;2024-03-25T02:52:50;2.93;;;2.37;;
9138;SDS011;4604;48.616;9.548;2024-03-25T02:55:17;3.37;;;2.40;;
9138;SDS011;4604;48.616;9.548;2024-03-25T02:57:43;5.93;;;2.90;;
9138;SDS011;4604;48.616;9.548;2024-03-25T03:00:11;3.37;;;2.40;;
9138;SDS011;4604;48.616;9.548;2024-03-25T03:02:38;4.40;;;2.60;;
9138;SDS011;4604;48.616;9.548;2024-03-25T03:05:05;4.90;;;2.73;;
9138;SDS011;4604;48.616;9.548;2024-03-25T03:07:31;6.53;;;2.80;;
9138;SDS011;4604;48.616;9.548;2024-03-25T03:09:58;5.40;;;2.83;;
9138;SDS011;4604;48.616;9.548;2024-03-25T03:12:23;3.77;;;2.70;;
9138;SDS011;4604;48.616;9.548;2024-03-25T03:14:50;4.80;;;2.50;;
9138;SDS011;4604;48.616;9.548;2024-03-25T03:17:17;4.20;;;2.53;;
9138;SDS011;4604;48.616;9.548;2024-03-25T03:19:44;3.40;;;2.33;;
9138;SDS011;4604;48.616;9.548;2024-03-25T03:22:10;4.63;;;2.97;;
9138;SDS011;4604;48.616;9.548;2024-03-25T03:24:37;4.97;;;2.97;;
9138;SDS011;4604;48.616;9.548;2024-03-25T03:27:03;3.30;;;2.37;;
9138;SDS011;4604;48.616;9.548;2024-03-25T03:29:30;7.23;;;2.73;;
9138;SDS011;4604;48.616;9.548;2024-03-25T03:31:55;4.73;;;2.60;;
9138;SDS011;4604;48.616;9.548;2024-03-25T03:34:23;4.60;;;2.50;;
9138;SDS011;4604;48.616;9.548;2024-03-25T03:36:49;4.80;;;2.93;;
9138;SDS011;4604;48.616;9.548;2024-03-25T03:39:16;4.27;;;2.20;;
9138;SDS011;4604;48.616;9.548;2024-03-25T03:41:42;5.87;;;2.83;;
9138;SDS011;4604;48.616;9.548;2024-03-25T03:44:09;4.40;;;2.87;;
9138;SDS011;4604;48.616;9.548;2024-03-25T03:46:35;5.03;;;2.73;;
9138;SDS011;4604;48.616;9.548;2024-03-25T03:49:01;3.73;;;2.43;;
9138;SDS011;4604;48.616;9.548;2024-03-25T03:51:29;4.53;;;2.40;;
9138;SDS011;4604;48.616;9.548;2024-03-25T03:53:55;5.33;;;2.93;;
9138;SDS011;4604;48.616;9.548;2024-03-25T03:56:21;6.13;;;2.60;;
9138;SDS011;4604;48.616;9.548;2024-03-25T03:58:48;4.40;;;2.50;;
9138;SDS011;4604;48.616;9.548;2024-03-25T04:01:14;5.83;;;3.00;;
9138;SDS011;4604;48.616;9.548;2024-03-25T04:03:42;5.20;;;2.70;;
9138;SDS011;4604;48.616;9.548;2024-03-25T04:06:08;4.97;;;2.70;;
9138;SDS011;4604;48.616;9.548;2024-03-25T04:08:37;5.57;;;2.80;;
9138;SDS011;4604;48.616;9.548;2024-03-25T04:11:03;6.07;;;3.20;;
9138;SDS011;4604;48.616;9.548;2024-03-25T04:13:31;5.43;;;3.00;;
9138;SDS011;4604;48.616;9.548;2024-03-25T04:15:59;3.70;;;2.63;;
9138;SDS011;4604;48.616;9.548;2024-03-25T04:18:28;6.47;;;2.73;;
9138;SDS011;4604;48.616;9.548;2024-03-25T04:20:53;6.77;;;2.50;;
9138;SDS011;4604;48.616;9.548;2024-03-25T04:23:20;6.07;;;2.80;;
9138;SDS011;4604;48.616;9.548;2024-03-25T04:25:47;3.53;;;2.50;;
9138;SDS011;4604;48.616;9.548;2024-03-25T04:28:14;6.03;;;2.80;;
9138;SDS011;4604;48.616;9.548;2024-03-25T04:30:40;5.17;;;2.70;;
9138;SDS011;4604;48.616;9.548;2024-03-25T04:33:06;5.53;;;2.70;;
9138;SDS011;4604;48.616;9.548;2024-03-25T04:35:33;6.80;;;2.50;;
9138;SDS011;4604;48.616;9.548;2024-03-25T04:38:00;3.33;;;2.60;;
9138;SDS011;4604;48.616;9.548;2024-03-25T04:40:25;4.37;;;2.80;;
9138;SDS011;4604;48.616;9.548;2024-03-25T04:42:52;6.37;;;2.83;;
9138;SDS011;4604;48.616;9.548;2024-03-25T04:45:18;3.70;;;2.67;;
9138;SDS011;4604;48.616;9.548;2024-03-25T04:47:44;5.87;;;3.13;;
9138;SDS011;4604;48.616;9.548;2024-03-25T04:50:09;7.27;;;3.00;;
9138;SDS011;4604;48.616;9.548;2024-03-25T04:52:35;4.00;;;2.90;;
9138;SDS011;4604;48.616;9.548;2024-03-25T04:55:01;7.13;;;3.33;;
9138;SDS011;4604;48.616;9.548;2024-03-25T04:57:27;8.20;;;3.00;;
9138;SDS011;4604;48.616;9.548;2024-03-25T04:59:54;10.87;;;3.70;;
9138;SDS011;4604;48.616;9.548;2024-03-25T05:02:19;7.23;;;3.20;;
9138;SDS011;4604;48.616;9.548;2024-03-25T05:04:45;4.90;;;3.17;;
9138;SDS011;4604;48.616;9.548;2024-03-25T05:07:11;7.30;;;3.17;;
9138;SDS011;4604;48.616;9.548;2024-03-25T05:09:36;5.10;;;2.93;;
9138;SDS011;4604;48.616;9.548;2024-03-25T05:12:02;5.13;;;2.90;;
9138;SDS011;4604;48.616;9.548;2024-03-25T05:14:28;5.10;;;3.33;;
9138;SDS011;4604;48.616;9.548;2024-03-25T05:16:55;7.57;;;3.10;;
9138;SDS011;4604;48.616;9.548;2024-03-25T05:19:20;4.77;;;3.13;;
9138;SDS011;4604;48.616;9.548;2024-03-25T05:21:46;8.20;;;3.30;;
9138;SDS011;4604;48.616;9.548;2024-03-25T05:24:12;7.17;;;3.63;;
9138;SDS011;4604;48.616;9.548;2024-03-25T05:26:37;8.90;;;3.63;;
9138;SDS011;4604;48.616;9.548;2024-03-25T05:29:03;7.03;;;3.73;;
9138;SDS011;4604;48.616;9.548;2024-03-25T05:31:29;6.67;;;3.60;;
9138;SDS011;4604;48.616;9.548;2024-03-25T05:33:56;5.43;;;3.07;;
9138;SDS011;4604;48.616;9.548;2024-03-25T05:36:21;6.27;;;3.20;;
9138;SDS011;4604;48.616;9.548;2024-03-25T05:38:47;6.37;;;3.60;;
9138;SDS011;4604;48.616;9.548;2024-03-25T05:41:12;5.70;;;3.20;;
9138;SDS011;4604;48.616;9.548;2024-03-25T05:43:38;6.60;;;3.10;;
9138;SDS011;4604;48.616;9.548;2024-03-25T05:46:04;9.53;;;2.93;;
9138;SDS011;4604;48.616;9.548;2024-03-25T05:48:30;4.73;;;3.00;;
9138;SDS011;4604;48.616;9.548;2024-03-25T05:51:00;7.27;;;3.17;;
9138;SDS011;4604;48.616;9.548;2024-03-25T05:53:27;8.57;;;3.47;;
9138;SDS011;4604;48.616;9.548;2024-03-25T05:55:53;4.00;;;2.93;;
9138;SDS011;4604;48.616;9.548;2024-03-25T05:58:19;7.83;;;3.17;;
9138;SDS011;4604;48.616;9.548;2024-03-25T06:00:46;5.10;;;3.00;;
9138;SDS011;4604;48.616;9.548;2024-03-25T06:03:12;5.47;;;2.90;;
9138;SDS011;4604;48.616;9.548;2024-03-25T06:05:38;6.33;;;2.87;;
9138;SDS011;4604;48.616;9.548;2024-03-25T06:08:05;4.67;;;2.73;;
9138;SDS011;4604;48.616;9.548;2024-03-25T06:10:34;6.13;;;2.90;;
9138;SDS011;4604;48.616;9.548;2024-03-25T06:13:01;7.60;;;2.90;;
9138;SDS011;4604;48.616;9.548;2024-03-25T06:15:27;6.63;;;3.03;;
9138;SDS011;4604;48.616;9.548;2024-03-25T06:17:52;7.37;;;3.13;;
9138;SDS011;4604;48.616;9.548;2024-03-25T06:20:18;10.07;;;3.10;;
9138;SDS011;4604;48.616;9.548;2024-03-25T06:22:43;5.43;;;3.20;;
9138;SDS011;4604;48.616;9.548;2024-03-25T06:25:10;6.80;;;3.20;;
9138;SDS011;4604;48.616;9.548;2024-03-25T06:27:36;4.13;;;2.80;;
9138;SDS011;4604;48.616;9.548;2024-03-25T06:30:02;3.67;;;2.90;;
9138;SDS011;4604;48.616;9.548;2024-03-25T06:32:43;6.53;;;3.40;;
9138;SDS011;4604;48.616;9.548;2024-03-25T06:35:27;4.73;;;2.80;;
9138;SDS011;4604;48.616;9.548;2024-03-25T06:37:52;5.00;;;2.60;;
9138;SDS011;4604;48.616;9.548;2024-03-25T06:40:19;4.73;;;2.80;;
9138;SDS011;4604;48.616;9.548;2024-03-25T06:42:45;6.30;;;2.40;;
9138;SDS011;4604;48.616;9.548;2024-03-25T06:45:11;5.37;;;2.90;;
9138;SDS011;4604;48.616;9.548;2024-03-25T06:47:36;4.17;;;2.50;;
9138;SDS011;4604;48.616;9.548;2024-03-25T06:50:02;8.73;;;3.23;;
9138;SDS011;4604;48.616;9.548;2024-03-25T06:52:28;6.87;;;2.60;;
9138;SDS011;4604;48.616;9.548;2024-03-25T06:54:53;4.97;;;2.50;;
9138;SDS011;4604;48.616;9.548;2024-03-25T06:57:20;4.93;;;2.73;;
9138;SDS011;4604;48.616;9.548;2024-03-25T06:59:46;6.70;;;2.53;;
9138;SDS011;4604;48.616;9.548;2024-03-25T07:02:12;5.73;;;2.67;;
9138;SDS011;4604;48.616;9.548;2024-03-25T07:04:37;3.13;;;2.30;;
9138;SDS011;4604;48.616;9.548;2024-03-25T07:07:03;6.10;;;3.07;;
9138;SDS011;4604;48.616;9.548;2024-03-25T07:09:29;4.83;;;2.40;;
9138;SDS011;4604;48.616;9.548;2024-03-25T07:11:55;3.50;;;2.40;;
9138;SDS011;4604;48.616;9.548;2024-03-25T07:14:22;6.73;;;3.00;;
9138;SDS011;4604;48.616;9.548;2024-03-25T07:16:47;4.40;;;2.40;;
9138;SDS011;4604;48.616;9.548;2024-03-25T07:19:13;5.77;;;2.80;;
9138;SDS011;4604;48.616;9.548;2024-03-25T07:21:39;5.13;;;2.30;;
9138;SDS011;4604;48.616;9.548;2024-03-25T07:24:04;4.97;;;2.70;;
9138;SDS011;4604;48.616;9.548;2024-03-25T07:26:30;6.07;;;2.97;;
9138;SDS011;4604;48.616;9.548;2024-03-25T07:28:56;6.10;;;2.53;;
9138;SDS011;4604;48.616;9.548;2024-03-25T07:31:23;4.73;;;3.23;;
9138;SDS011;4604;48.616;9.548;2024-03-25T07:33:49;7.23;;;2.93;;
9138;SDS011;4604;48.616;9.548;2024-03-25T07:36:14;6.60;;;2.90;;
9138;SDS011;4604;48.616;9.548;2024-03-25T07:38:40;6.77;;;3.50;;
9138;SDS011;4604;48.616;9.548;2024-03-25T07:41:05;4.63;;;3.00;;
9138;SDS011;4604;48.616;9.548;2024-03-25T07:43:31;6.00;;;3.00;;
9138;SDS011;4604;48.616;9.548;2024-03-25T07:45:57;5.47;;;3.07;;
9138;SDS011;4604;48.616;9.548;2024-03-25T07:48:24;5.43;;;2.83;;
9138;SDS011;4604;48.616;9.548;2024-03-25T07:50:49;5.73;;;3.10;;
9138;SDS011;4604;48.616;9.548;2024-03-25T07:53:15;5.33;;;2.93;;
9138;SDS011;4604;48.616;9.548;2024-03-25T07:55:41;5.13;;;2.93;;
9138;SDS011;4604;48.616;9.548;2024-03-25T07:58:06;4.77;;;2.60;;
9138;SDS011;4604;48.616;9.548;2024-03-25T08:00:32;4.83;;;2.87;;
9138;SDS011;4604;48.616;9.548;2024-03-25T08:02:58;4.60;;;2.67;;
9138;SDS011;4604;48.616;9.548;2024-03-25T08:05:25;6.90;;;3.03;;
9138;SDS011;4604;48.616;9.548;2024-03-25T08:07:50;7.50;;;2.70;;
9138;SDS011;4604;48.616;9.548;2024-03-25T08:10:16;5.37;;;2.63;;
9138;SDS011;4604;48.616;9.548;2024-03-25T08:12:42;6.70;;;2.87;;
9138;SDS011;4604;48.616;9.548;2024-03-25T08:15:08;4.60;;;3.00;;
9138;SDS011;4604;48.616;9.548;2024-03-25T08:17:34;5.17;;;2.67;;
9138;SDS011;4604;48.616;9.548;2024-03-25T08:19:59;4.80;;;2.93;;
9138;SDS011;4604;48.616;9.548;2024-03-25T08:22:26;5.03;;;2.70;;
9138;SDS011;4604;48.616;9.548;2024-03-25T08:24:52;7.97;;;2.93;;
9138;SDS011;4604;48.616;9.548;2024-03-25T08:27:18;8.90;;;3.27;;
9138;SDS011;4604;48.616;9.548;2024-03-25T08:29:43;5.43;;;2.93;;
9138;SDS011;4604;48.616;9.548;2024-03-25T08:32:09;4.63;;;2.73;;
9138;SDS011;4604;48.616;9.548;2024-03-25T08:34:34;6.57;;;2.80;;
9138;SDS011;4604;48.616;9.548;2024-03-25T08:37:00;9.77;;;3.20;;
9138;SDS011;4604;48.616;9.548;2024-03-25T08:39:27;4.80;;;3.10;;
9138;SDS011;4604;48.616;9.548;2024-03-25T08:41:53;8.47;;;3.90;;
9138;SDS011;4604;48.616;9.548;2024-03-25T08:44:18;5.00;;;3.00;;
9138;SDS011;4604;48.616;9.548;2024-03-25T08:46:44;6.00;;;2.80;;
9138;SDS011;4604;48.616;9.548;2024-03-25T08:49:10;6.17;;;3.23;;
9138;SDS011;4604;48.616;9.548;2024-03-25T08:51:35;6.40;;;3.27;;
9138;SDS011;4604;48.616;9.548;2024-03-25T08:54:01;7.13;;;2.83;;
9138;SDS011;4604;48.616;9.548;2024-03-25T08:56:28;6.17;;;3.00;;
9138;SDS011;4604;48.616;9.548;2024-03-25T08:58:53;6.37;;;2.80;;
9138;SDS011;4604;48.616;9.548;2024-03-25T09:01:19;4.23;;;2.90;;
9138;SDS011;4604;48.616;9.548;2024-03-25T09:03:45;4.90;;;2.93;;
9138;SDS011;4604;48.616;9.548;2024-03-25T09:06:11;3.30;;;2.50;;
9138;SDS011;4604;48.616;9.548;2024-03-25T09:08:37;5.10;;;3.30;;
9138;SDS011;4604;48.616;9.548;2024-03-25T09:11:17;5.17;;;2.57;;
9138;SDS011;4604;48.616;9.548;2024-03-25T09:13:44;3.47;;;2.70;;
9138;SDS011;4604;48.616;9.548;2024-03-25T09:16:10;5.47;;;2.87;;
9138;SDS011;4604;48.616;9.548;2024-03-25T09:18:36;4.00;;;2.97;;
9138;SDS011;4604;48.616;9.548;2024-03-25T09:21:02;6.77;;;2.50;;
9138;SDS011;4604;48.616;9.548;2024-03-25T09:23:27;6.20;;;2.80;;
9138;SDS011;4604;48.616;9.548;2024-03-25T09:25:53;5.93;;;3.10;;
9138;SDS011;4604;48.616;9.548;2024-03-25T09:28:19;7.43;;;3.10;;
9138;SDS011;4604;48.616;9.548;2024-03-25T09:30:47;4.33;;;2.63;;
9138;SDS011;4604;48.616;9.548;2024-03-25T09:33:12;6.20;;;3.00;;
9138;SDS011;4604;48.616;9.548;2024-03-25T09:35:38;4.60;;;2.93;;
9138;SDS011;4604;48.616;9.548;2024-03-25T09:38:04;3.50;;;2.63;;
9138;SDS011;4604;48.616;9.548;2024-03-25T09:40:29;6.70;;;3.33;;
9138;SDS011;4604;48.616;9.548;2024-03-25T09:42:56;9.13;;;3.10;;
9138;SDS011;4604;48.616;9.548;2024-03-25T09:45:23;4.77;;;2.80;;
9138;SDS011;4604;48.616;9.548;2024-03-25T09:47:51;4.87;;;2.50;;
9138;SDS011;4604;48.616;9.548;2024-03-25T09:50:17;16.93;;;3.50;;
9138;SDS011;4604;48.616;9.548;2024-03-25T09:52:44;6.50;;;2.93;;
9138;SDS011;4604;48.616;9.548;2024-03-25T09:55:10;4.47;;;2.43;;
9138;SDS011;4604;48.616;9.548;2024-03-25T09:57:35;4.10;;;2.50;;
9138;SDS011;4604;48.616;9.548;2024-03-25T10:00:02;9.33;;;2.97;;
9138;SDS011;4604;48.616;9.548;2024-03-25T10:02:28;4.70;;;2.77;;
9138;SDS011;4604;48.616;9.548;2024-03-25T10:04:57;5.67;;;3.00;;
9138;SDS011;4604;48.616;9.548;2024-03-25T10:07:23;4.13;;;2.47;;
9138;SDS011;4604;48.616;9.548;2024-03-25T10:09:49;4.37;;;2.70;;
9138;SDS011;4604;48.616;9.548;2024-03-25T10:12:15;7.93;;;3.13;;
9138;SDS011;4604;48.616;9.548;2024-03-25T10:14:40;9.97;;;3.10;;
9138;SDS011;4604;48.616;9.548;2024-03-25T10:17:06;9.07;;;2.97;;
9138;SDS011;4604;48.616;9.548;2024-03-25T10:19:32;4.33;;;2.63;;
9138;SDS011;4604;48.616;9.548;2024-03-25T10:22:06;5.30;;;2.70;;
9138;SDS011;4604;48.616;9.548;2024-03-25T10:24:39;4.13;;;2.87;;
9138;SDS011;4604;48.616;9.548;2024-03-25T10:27:06;5.73;;;2.70;;
9138;SDS011;4604;48.616;9.548;2024-03-25T10:29:35;6.37;;;2.63;;
9138;SDS011;4604;48.616;9.548;2024-03-25T10:32:00;6.07;;;2.87;;
9138;SDS011;4604;48.616;9.548;2024-03-25T10:34:26;5.43;;;2.63;;
9138;SDS011;4604;48.616;9.548;2024-03-25T10:36:53;8.50;;;2.83;;
9138;SDS011;4604;48.616;9.548;2024-03-25T10:39:24;5.57;;;2.43;;
9138;SDS011;4604;48.616;9.548;2024-03-25T10:41:53;5.90;;;2.87;;
9138;SDS011;4604;48.616;9.548;2024-03-25T10:44:21;3.33;;;2.40;;
9138;SDS011;4604;48.616;9.548;2024-03-25T10:46:47;5.27;;;2.53;;
9138;SDS011;4604;48.616;9.548;2024-03-25T10:49:16;5.83;;;2.30;;
9138;SDS011;4604;48.616;9.548;2024-03-25T10:51:51;3.47;;;2.47;;
9138;SDS011;4604;48.616;9.548;2024-03-25T10:54:18;4.30;;;2.40;;
9138;SDS011;4604;48.616;9.548;2024-03-25T10:56:45;4.90;;;2.37;;
9138;SDS011;4604;48.616;9.548;2024-03-25T10:59:11;3.67;;;2.17;;
9138;SDS011;4604;48.616;9.548;2024-03-25T11:01:38;4.60;;;2.40;;
9138;SDS011;4604;48.616;9.548;2024-03-25T11:04:04;3.60;;;2.60;;
9138;SDS011;4604;48.616;9.548;2024-03-25T11:06:30;2.40;;;2.20;;
9138;SDS011;4604;48.616;9.548;2024-03-25T11:08:57;5.10;;;2.57;;
9138;SDS011;4604;48.616;9.548;2024-03-25T11:11:23;3.07;;;2.07;;
9138;SDS011;4604;48.616;9.548;2024-03-25T11:13:56;3.37;;;2.20;;
9138;SDS011;4604;48.616;9.548;2024-03-25T11:16:26;3.70;;;2.30;;
9138;SDS011;4604;48.616;9.548;2024-03-25T11:18:54;3.33;;;2.23;;
9138;SDS011;4604;48.616;9.548;2024-03-25T11:21:24;3.90;;;2.10;;
9138;SDS011;4604;48.616;9.548;2024-03-25T11:23:50;2.70;;;2.10;;
9138;SDS011;4604;48.616;9.548;2024-03-25T11:26:16;2.97;;;2.13;;
9138;SDS011;4604;48.616;9.548;2024-03-25T11:28:44;3.33;;;2.03;;
9138;SDS011;4604;48.616;9.548;2024-03-25T11:31:11;2.50;;;2.23;;
9138;SDS011;4604;48.616;9.548;2024-03-25T11:33:37;4.20;;;2.50;;
9138;SDS011;4604;48.616;9.548;2024-03-25T11:36:03;2.57;;;1.90;;
9138;SDS011;4604;48.616;9.548;2024-03-25T11:38:29;2.60;;;2.27;;
9138;SDS011;4604;48.616;9.548;2024-03-25T11:40:55;8.87;;;3.50;;
9138;SDS011;4604;48.616;9.548;2024-03-25T11:43:21;4.37;;;2.83;;
9138;SDS011;4604;48.616;9.548;2024-03-25T11:45:48;3.77;;;2.30;;
9138;SDS011;4604;48.616;9.548;2024-03-25T11:48:15;2.40;;;2.10;;
9138;SDS011;4604;48.616;9.548;2024-03-25T11:50:44;3.83;;;2.60;;
9138;SDS011;4604;48.616;9.548;2024-03-25T11:53:10;3.50;;;2.40;;
9138;SDS011;4604;48.616;9.548;2024-03-25T11:55:37;5.90;;;2.33;;
9138;SDS011;4604;48.616;9.548;2024-03-25T11:58:04;3.93;;;2.43;;
9138;SDS011;4604;48.616;9.548;2024-03-25T12:00:29;3.50;;;2.20;;
9138;SDS011;4604;48.616;9.548;2024-03-25T12:02:55;4.23;;;2.37;;
9138;SDS011;4604;48.616;9.548;2024-03-25T12:05:22;6.00;;;2.70;;
9138;SDS011;4604;48.616;9.548;2024-03-25T12:07:48;3.60;;;2.80;;
9138;SDS011;4604;48.616;9.548;2024-03-25T12:10:15;5.07;;;2.70;;
9138;SDS011;4604;48.616;9.548;2024-03-25T12:12:59;3.50;;;2.70;;
9138;SDS011;4604;48.616;9.548;2024-03-25T12:15:24;3.77;;;2.43;;
9138;SDS011;4604;48.616;9.548;2024-03-25T12:17:51;3.17;;;2.47;;
9138;SDS011;4604;48.616;9.548;2024-03-25T12:20:17;6.13;;;2.47;;
9138;SDS011;4604;48.616;9.548;2024-03-25T12:22:44;4.13;;;2.30;;
9138;SDS011;4604;48.616;9.548;2024-03-25T12:25:10;3.53;;;2.37;;
9138;SDS011;4604;48.616;9.548;2024-03-25T12:27:38;4.07;;;2.47;;
9138;SDS011;4604;48.616;9.548;2024-03-25T12:30:05;3.23;;;2.43;;
9138;SDS011;4604;48.616;9.548;2024-03-25T12:32:35;4.87;;;2.67;;
9138;SDS011;4604;48.616;9.548;2024-03-25T12:35:01;3.00;;;2.30;;
9138;SDS011;4604;48.616;9.548;2024-03-25T12:37:27;3.33;;;2.33;;
9138;SDS011;4604;48.616;9.548;2024-03-25T12:39:55;4.47;;;2.50;;
9138;SDS011;4604;48.616;9.548;2024-03-25T12:42:20;3.30;;;2.30;;
9138;SDS011;4604;48.616;9.548;2024-03-25T12:44:46;2.73;;;2.30;;
9138;SDS011;4604;48.616;9.548;2024-03-25T12:47:12;3.70;;;2.27;;
9138;SDS011;4604;48.616;9.548;2024-03-25T12:49:38;3.87;;;2.67;;
9138;SDS011;4604;48.616;9.548;2024-03-25T12:52:04;4.00;;;2.80;;
9138;SDS011;4604;48.616;9.548;2024-03-25T12:54:31;6.90;;;2.70;;
9138;SDS011;4604;48.616;9.548;2024-03-25T12:56:58;4.30;;;2.67;;
9138;SDS011;4604;48.616;9.548;2024-03-25T12:59:24;5.20;;;2.47;;
9138;SDS011;4604;48.616;9.548;2024-03-25T13:01:50;4.40;;;2.43;;
9138;SDS011;4604;48.616;9.548;2024-03-25T13:04:16;2.80;;;1.87;;
9138;SDS011;4604;48.616;9.548;2024-03-25T13:06:42;3.37;;;2.40;;
9138;SDS011;4604;48.616;9.548;2024-03-25T13:09:08;4.47;;;2.10;;
9138;SDS011;4604;48.616;9.548;2024-03-25T13:11:33;3.43;;;2.47;;
9138;SDS011;4604;48.616;9.548;2024-03-25T13:14:01;5.77;;;2.50;;
9138;SDS011;4604;48.616;9.548;2024-03-25T13:16:27;3.83;;;2.43;;
9138;SDS011;4604;48.616;9.548;2024-03-25T13:18:52;4.67;;;2.70;;
9138;SDS011;4604;48.616;9.548;2024-03-25T13:21:18;4.20;;;2.53;;
9138;SDS011;4604;48.616;9.548;2024-03-25T13:23:43;4.63;;;2.40;;
9138;SDS011;4604;48.616;9.548;2024-03-25T13:26:09;3.47;;;2.10;;
9138;SDS011;4604;48.616;9.548;2024-03-25T13:28:35;3.20;;;2.27;;
9138;SDS011;4604;48.616;9.548;2024-03-25T13:31:02;2.77;;;2.13;;
9138;SDS011;4604;48.616;9.548;2024-03-25T13:33:28;2.17;;;1.97;;
9138;SDS011;4604;48.616;9.548;2024-03-25T13:35:53;3.07;;;2.70;;
9138;SDS011;4604;48.616;9.548;2024-03-25T13:38:19;3.80;;;2.40;;
9138;SDS011;4604;48.616;9.548;2024-03-25T13:40:45;3.60;;;2.30;;
9138;SDS011;4604;48.616;9.548;2024-03-25T13:43:10;3.33;;;2.53;;
9138;SDS011;4604;48.616;9.548;2024-03-25T13:45:36;3.07;;;2.10;;
9138;SDS011;4604;48.616;9.548;2024-03-25T13:48:12;3.17;;;2.40;;
9138;SDS011;4604;48.616;9.548;2024-03-25T13:50:38;4.40;;;2.20;;
9138;SDS011;4604;48.616;9.548;2024-03-25T13:53:03;2.00;;;1.80;;
9138;SDS011;4604;48.616;9.548;2024-03-25T13:55:29;2.73;;;1.80;;
9138;SDS011;4604;48.616;9.548;2024-03-25T13:57:54;3.17;;;1.80;;
9138;SDS011;4604;48.616;9.548;2024-03-25T14:00:20;4.27;;;2.13;;
9138;SDS011;4604;48.616;9.548;2024-03-25T14:02:46;1.90;;;1.80;;
9138;SDS011;4604;48.616;9.548;2024-03-25T14:05:13;2.17;;;1.90;;
9138;SDS011;4604;48.616;9.548;2024-03-25T14:07:39;4.93;;;2.00;;
9138;SDS011;4604;48.616;9.548;2024-03-25T14:10:04;3.80;;;2.30;;
9138;SDS011;4604;48.616;9.548;2024-03-25T14:12:30;2.30;;;1.87;;
9138;SDS011;4604;48.616;9.548;2024-03-25T14:14:56;2.70;;;1.67;;
9138;SDS011;4604;48.616;9.548;2024-03-25T14:17:22;2.87;;;1.70;;
9138;SDS011;4604;48.616;9.548;2024-03-25T14:19:47;3.93;;;1.90;;
9138;SDS011;4604;48.616;9.548;2024-03-25T14:22:14;3.80;;;2.43;;
9138;SDS011;4604;48.616;9.548;2024-03-25T14:24:40;2.90;;;2.27;;
9138;SDS011;4604;48.616;9.548;2024-03-25T14:27:06;2.38;;;1.92;;
9138;SDS011;4604;48.616;9.548;2024-03-25T14:29:31;3.03;;;1.90;;
9138;SDS011;4604;48.616;9.548;2024-03-25T14:31:57;3.17;;;1.77;;
9138;SDS011;4604;48.616;9.548;2024-03-25T14:34:23;3.17;;;1.90;;
9138;SDS011;4604;48.616;9.548;2024-03-25T14:36:48;3.28;;;1.90;;
9138;SDS011;4604;48.616;9.548;2024-03-25T14:39:15;2.40;;;1.75;;
9138;SDS011;4604;48.616;9.548;2024-03-25T14:41:41;2.63;;;1.77;;
9138;SDS011;4604;48.616;9.548;2024-03-25T14:44:07;2.20;;;1.92;;
9138;SDS011;4604;48.616;9.548;2024-03-25T14:46:32;2.80;;;1.70;;
9138;SDS011;4604;48.616;9.548;2024-03-25T14:48:58;2.45;;;1.60;;
9138;SDS011;4604;48.616;9.548;2024-03-25T14:51:23;1.92;;;1.42;;
9138;SDS011;4604;48.616;9.548;2024-03-25T14:53:49;2.13;;;1.73;;
9138;SDS011;4604;48.616;9.548;2024-03-25T14:56:16;2.17;;;1.70;;
9138;SDS011;4604;48.616;9.548;2024-03-25T14:58:42;2.13;;;1.73;;
9138;SDS011;4604;48.616;9.548;2024-03-25T15:01:07;2.63;;;1.65;;
9138;SDS011;4604;48.616;9.548;2024-03-25T15:03:33;1.95;;;1.38;;
9138;SDS011;4604;48.616;9.548;2024-03-25T15:05:59;1.98;;;1.60;;
9138;SDS011;4604;48.616;9.548;2024-03-25T15:08:24;2.45;;;1.42;;
9138;SDS011;4604;48.616;9.548;2024-03-25T15:10:50;1.90;;;1.55;;